Time;durP1;ratioP1;P1;durP2;ratioP2;P2;SDS_P1;SDS_P2;PMS_P1;PMS_P2;Temp;Humidity;BMP_temperature;BMP_pressure;BME280_temperature;BME280_humidity;BME280_pressure;Samples;Min_cycle;Max_cycle;Signal;HPM_P1;HPM_P2
2024/02/02 00:00:23;;;;;;;;;;;;;;;17.52;37.51;101234.50;5027262;28;1091;-45
2024/02/02 00:02:48;;;;;;;;;;;;;;;16.67;38.87;101226.28;5019502;28;999;-44
2024/02/02 00:05:14;;;;;;;;;;;;;;;15.99;40.52;101227.59;5035319;28;1106;-46
2024/02/02 00:07:39;;;;;;;;;;;;;;;15.71;41.02;101231.34;5033804;28;1045;-46
2024/02/02 00:10:05;;;;;;;;;;;;;;;16.28;39.96;101224.56;5016221;28;1040;-44
2024/02/02 00:12:31;;;;;;;;;;;;;;;17.56;37.14;101219.09;5031668;28;1043;-48
2024/02/02 00:14:57;;;;;;;;;;;;;;;16.75;38.88;101223.03;5035513;28;1130;-46
2024/02/02 00:17:22;;;;;;;;;;;;;;;15.99;40.61;101211.16;5032870;28;1977;-44
2024/02/02 00:19:48;;;;;;;;;;;;;;;15.62;41.39;101210.97;5023513;28;2372;-44
2024/02/02 00:22:14;;;;;;;;;;;;;;;15.70;41.28;101219.56;5018382;28;1068;-47
2024/02/02 00:24:39;;;;;;;;;;;;;;;17.27;38.11;101213.22;5035418;28;1047;-43
2024/02/02 00:27:05;;;;;;;;;;;;;;;16.62;39.09;101217.97;5025779;28;1195;-48
2024/02/02 00:29:30;;;;;;;;;;;;;;;15.97;40.54;101213.31;5039416;28;1047;-44
2024/02/02 00:31:56;;;;;;;;;;;;;;;15.63;41.15;101210.72;5025070;28;1166;-46
2024/02/02 00:34:21;;;;;;;;;;;;;;;16.43;39.53;101205.50;5039345;28;1011;-42
2024/02/02 00:36:47;;;;;;;;;;;;;;;17.61;37.26;101208.13;5025938;28;1965;-47
2024/02/02 00:39:12;;;;;;;;;;;;;;;16.90;38.29;101214.09;5030628;28;1143;-47
2024/02/02 00:41:38;;;;;;;;;;;;;;;16.18;39.85;101202.53;5032557;28;1098;-44
2024/02/02 00:44:04;;;;;;;;;;;;;;;15.76;40.99;101219.63;5021147;28;1044;-46
2024/02/02 00:46:29;;;;;;;;;;;;;;;15.52;41.46;101219.91;5039111;28;1031;-45
2024/02/02 00:48:55;;;;;;;;;;;;;;;16.71;38.92;101205.44;5029577;28;1167;-43
2024/02/02 00:51:20;;;;;;;;;;;;;;;17.65;37.12;101197.41;5024262;28;2659;-48
2024/02/02 00:53:46;;;;;;;;;;;;;;;16.53;39.22;101198.44;5038995;28;1126;-46
2024/02/02 00:56:11;;;;;;;;;;;;;;;15.91;40.31;101192.41;5023544;28;1967;-44
2024/02/02 00:58:37;;;;;;;;;;;;;;;15.56;41.42;101188.16;5019197;28;1040;-44
2024/02/02 01:01:02;;;;;;;;;;;;;;;16.04;40.57;101191.16;5024041;28;1077;-45
2024/02/02 01:03:28;;;;;;;;;;;;;;;17.39;37.74;101189.06;5038978;28;1079;-45
2024/02/02 01:05:54;;;;;;;;;;;;;;;16.89;38.43;101188.56;5038155;28;1071;-47
2024/02/02 01:08:19;;;;;;;;;;;;;;;16.18;39.78;101197.06;5036278;28;1007;-44
2024/02/02 01:10:45;;;;;;;;;;;;;;;15.74;40.63;101198.78;5034457;28;1111;-47
2024/02/02 01:13:11;;;;;;;;;;;;;;;15.54;41.19;101209.50;5030151;28;1206;-45
2024/02/02 01:15:36;;;;;;;;;;;;;;;17.17;38.24;101207.66;5020714;28;1011;-45
2024/02/02 01:18:02;;;;;;;;;;;;;;;16.98;38.14;101204.53;5038148;28;1914;-47
2024/02/02 01:20:28;;;;;;;;;;;;;;;16.07;40.11;101196.97;5025116;28;2535;-47
2024/02/02 01:22:53;;;;;;;;;;;;;;;15.72;40.88;101200.97;5029951;28;1206;-46
2024/02/02 01:25:19;;;;;;;;;;;;;;;15.45;41.25;101211.06;5020755;28;1067;-42
2024/02/02 01:27:45;;;;;;;;;;;;;;;16.82;38.61;101214.56;5038776;28;1056;-43
2024/02/02 01:30:11;;;;;;;;;;;;;;;17.66;37.11;101204.56;5024857;28;1054;-44
2024/02/02 01:32:37;;;;;;;;;;;;;;;16.51;39.31;101203.34;5034616;28;1118;-46
2024/02/02 01:35:03;;;;;;;;;;;;;;;15.91;40.27;101198.72;5034419;28;1123;-41
2024/02/02 01:37:28;;;;;;;;;;;;;;;15.60;41.05;101197.53;5029147;28;1909;-43
2024/02/02 01:39:54;;;;;;;;;;;;;;;16.78;38.95;101200.53;5034381;28;1106;-44
2024/02/02 01:42:19;;;;;;;;;;;;;;;17.62;36.85;101195.19;5028078;28;961;-47
2024/02/02 01:44:45;;;;;;;;;;;;;;;16.48;39.28;101184.66;5033444;28;1064;-44
2024/02/02 01:47:10;;;;;;;;;;;;;;;15.90;40.51;101186.06;5028832;28;1293;-45
2024/02/02 01:49:36;;;;;;;;;;;;;;;15.59;40.97;101192.31;5030566;28;1231;-47
2024/02/02 01:52:02;;;;;;;;;;;;;;;16.20;39.95;101184.72;5018958;28;2793;-42
2024/02/02 01:54:28;;;;;;;;;;;;;;;17.47;37.15;101178.66;5030284;28;1148;-49
2024/02/02 01:56:53;;;;;;;;;;;;;;;16.83;38.29;101194.25;5021640;28;1976;-43
2024/02/02 01:59:19;;;;;;;;;;;;;;;16.12;39.96;101190.69;5022699;28;1163;-45
2024/02/02 02:01:45;;;;;;;;;;;;;;;15.67;40.92;101191.81;5029055;28;1201;-44
2024/02/02 02:04:10;;;;;;;;;;;;;;;15.50;41.01;101183.69;5032288;28;989;-45
2024/02/02 02:06:36;;;;;;;;;;;;;;;16.96;38.14;101191.06;5029563;28;1095;-46
2024/02/02 02:09:02;;;;;;;;;;;;;;;17.41;37.32;101192.38;5020416;28;1088;-46
2024/02/02 02:11:27;;;;;;;;;;;;;;;16.33;39.18;101188.13;5025024;28;1065;-46
2024/02/02 02:13:54;;;;;;;;;;;;;;;15.76;40.39;101197.69;5032239;28;1151;-47
2024/02/02 02:16:20;;;;;;;;;;;;;;;15.52;41.03;101201.53;5029464;28;1898;-44
2024/02/02 02:18:46;;;;;;;;;;;;;;;16.51;39.21;101200.59;5019146;28;1031;-44
2024/02/02 02:21:22;;;;;;;;;;;;;;;17.59;36.99;101201.25;5030124;28;2684;-42
2024/02/02 02:23:48;;;;;;;;;;;;;;;16.74;38.50;101199.41;5021324;28;1147;-46
2024/02/02 02:26:13;;;;;;;;;;;;;;;16.07;39.92;101202.44;5026941;28;1055;-46
2024/02/02 02:28:39;;;;;;;;;;;;;;;15.68;40.56;101202.56;5024163;28;976;-46
2024/02/02 02:31:04;;;;;;;;;;;;;;;15.59;40.68;101204.09;5037122;28;1109;-44
2024/02/02 02:33:30;;;;;;;;;;;;;;;17.16;37.52;101201.31;5032937;28;1015;-46
2024/02/02 02:35:56;;;;;;;;;;;;;;;17.04;37.63;101214.44;5036992;28;1078;-45
2024/02/02 02:38:21;;;;;;;;;;;;;;;16.18;39.53;101203.34;5020974;28;1979;-43
2024/02/02 02:40:47;;;;;;;;;;;;;;;15.76;40.60;101208.66;5017434;28;1096;-48
2024/02/02 02:43:12;;;;;;;;;;;;;;;15.51;40.80;101212.75;5019479;28;1047;-47
2024/02/02 02:45:38;;;;;;;;;;;;;;;16.95;38.03;101221.56;5034779;28;1106;-43
2024/02/02 02:48:03;;;;;;;;;;;;;;;17.65;36.62;101219.41;5019945;28;1017;-43
2024/02/02 02:50:29;;;;;;;;;;;;;;;16.50;38.67;101218.19;5016856;28;2387;-46
2024/02/02 02:52:54;;;;;;;;;;;;;;;15.89;39.96;101211.88;5032617;28;1136;-45
2024/02/02 02:55:20;;;;;;;;;;;;;;;15.63;40.75;101216.19;5036873;28;1598;-45
2024/02/02 02:57:46;;;;;;;;;;;;;;;16.30;39.41;101210.59;5028499;28;1914;-47
2024/02/02 03:00:12;;;;;;;;;;;;;;;17.52;36.92;101214.41;5034239;28;1035;-43
2024/02/02 03:02:38;;;;;;;;;;;;;;;16.71;38.34;101213.66;5023373;28;1084;-48
2024/02/02 03:05:04;;;;;;;;;;;;;;;16.02;39.79;101202.38;5027208;28;1186;-43
2024/02/02 03:07:29;;;;;;;;;;;;;;;15.62;40.65;101205.50;5019414;28;1154;-44
2024/02/02 03:09:55;;;;;;;;;;;;;;;15.96;39.83;101208.91;5029037;28;1113;-45
2024/02/02 03:12:20;;;;;;;;;;;;;;;17.39;36.91;101210.22;5016983;28;1139;-46
2024/02/02 03:14:46;;;;;;;;;;;;;;;16.96;37.64;101196.56;5025987;28;1052;-45
2024/02/02 03:17:12;;;;;;;;;;;;;;;16.16;39.29;101199.22;5023264;28;1980;-45
2024/02/02 03:19:38;;;;;;;;;;;;;;;15.73;40.17;101194.38;5036285;28;1097;-49
2024/02/02 03:22:03;;;;;;;;;;;;;;;15.51;40.65;101199.88;5027123;28;2793;-43
2024/02/02 03:24:29;;;;;;;;;;;;;;;16.85;38.14;101201.13;5036524;28;1028;-46
2024/02/02 03:26:55;;;;;;;;;;;;;;;17.56;36.48;101196.28;5033233;28;1011;-43
2024/02/02 03:29:21;;;;;;;;;;;;;;;16.43;38.82;101199.19;5016418;28;1056;-44
2024/02/02 03:31:46;;;;;;;;;;;;;;;15.89;39.87;101203.63;5028541;28;1150;-43
2024/02/02 03:34:12;;;;;;;;;;;;;;;15.67;40.58;101208.28;5015515;28;1048;-44
2024/02/02 03:36:37;;;;;;;;;;;;;;;15.39;41.15;101219.22;5030664;28;1897;-45
2024/02/02 03:39:03;;;;;;;;;;;;;;;16.89;38.05;101220.69;5035940;28;1487;-48
2024/02/02 03:41:29;;;;;;;;;;;;;;;17.48;36.84;101227.06;5022345;28;1036;-46
2024/02/02 03:43:56;;;;;;;;;;;;;;;16.37;38.88;101231.25;5035850;28;1015;-45
2024/02/02 03:46:22;;;;;;;;;;;;;;;15.80;40.24;101226.31;5028694;28;1276;-44
2024/02/02 03:48:48;;;;;;;;;;;;;;;15.60;40.76;101230.44;5035803;28;1067;-45
2024/02/02 03:51:13;;;;;;;;;;;;;;;16.32;39.21;101235.88;5023572;28;2499;-48
2024/02/02 03:53:39;;;;;;;;;;;;;;;17.51;36.84;101240.25;5016196;28;1076;-45
2024/02/02 03:56:05;;;;;;;;;;;;;;;16.66;38.28;101236.44;5030683;28;1981;-47
2024/02/02 03:58:31;;;;;;;;;;;;;;;15.92;39.87;101232.44;5026248;28;858;-47
2024/02/02 04:00:56;;;;;;;;;;;;;;;15.67;40.35;101230.22;5021381;28;1097;-46
2024/02/02 04:03:22;;;;;;;;;;;;;;;16.39;39.11;101231.81;5039928;28;1043;-45
2024/02/02 04:05:47;;;;;;;;;;;;;;;17.53;36.70;101238.06;5039761;28;1043;-42
2024/02/02 04:08:13;;;;;;;;;;;;;;;16.46;38.70;101231.59;5039998;28;1023;-42
2024/02/02 04:10:38;;;;;;;;;;;;;;;15.89;39.67;101243.94;5033386;28;1035;-46
2024/02/02 04:13:04;;;;;;;;;;;;;;;15.60;40.63;101249.63;5026790;28;1045;-45
2024/02/02 04:15:30;;;;;;;;;;;;;;;16.07;39.70;101250.97;5036595;28;1168;-48
2024/02/02 04:17:55;;;;;;;;;;;;;;;17.38;36.80;101252.56;5028082;28;1910;-47
2024/02/02 04:20:21;;;;;;;;;;;;;;;16.74;38.13;101249.66;5034545;28;2462;-44
2024/02/02 04:22:50;;;;;;;;;;;;;;;16.02;39.54;101254.50;5022097;28;938;-42
2024/02/02 04:25:15;;;;;;;;;;;;;;;15.62;40.20;101254.84;5032681;28;1092;-45
2024/02/02 04:27:41;;;;;;;;;;;;;;;16.14;39.40;101256.28;5028263;28;1116;-45
2024/02/02 04:30:07;;;;;;;;;;;;;;;17.47;36.85;101256.44;5025945;28;1087;-46
2024/02/02 04:32:32;;;;;;;;;;;;;;;16.63;38.10;101253.41;5031118;28;1023;-46
2024/02/02 04:34:58;;;;;;;;;;;;;;;15.98;39.76;101258.84;5023780;28;1056;-42
2024/02/02 04:37:23;;;;;;;;;;;;;;;15.72;40.28;101255.81;5031258;28;1980;-43
2024/02/02 04:39:49;;;;;;;;;;;;;;;16.22;39.48;101247.56;5033478;28;1082;-46
2024/02/02 04:42:14;;;;;;;;;;;;;;;17.49;36.88;101257.03;5039463;28;1011;-49
2024/02/02 04:44:40;;;;;;;;;;;;;;;16.62;38.38;101257.28;5038143;28;1084;-50
2024/02/02 04:47:06;;;;;;;;;;;;;;;15.97;39.77;101254.44;5030537;28;904;-48
2024/02/02 04:49:31;;;;;;;;;;;;;;;15.62;40.41;101241.94;5024892;28;1102;-46
2024/02/02 04:51:57;;;;;;;;;;;;;;;15.83;39.93;101256.75;5027061;28;2682;-45
2024/02/02 04:54:22;;;;;;;;;;;;;;;17.28;37.22;101247.84;5025261;28;1171;-48
2024/02/02 04:56:48;;;;;;;;;;;;;;;17.07;37.38;101255.97;5026570;28;1894;-49
2024/02/02 04:59:14;;;;;;;;;;;;;;;16.23;39.03;101269.25;5024415;28;1221;-46
2024/02/02 05:01:39;;;;;;;;;;;;;;;15.77;40.12;101274.22;5037861;28;1133;-44
2024/02/02 05:04:05;;;;;;;;;;;;;;;15.54;40.59;101269.81;5038780;28;1086;-47
2024/02/02 05:06:30;;;;;;;;;;;;;;;16.56;38.74;101272.88;5031820;28;1253;-47
2024/02/02 05:08:56;;;;;;;;;;;;;;;17.60;36.58;101272.47;5019236;28;1118;-43
2024/02/02 05:11:21;;;;;;;;;;;;;;;16.60;38.54;101281.41;5018387;28;891;-46
2024/02/02 05:13:47;;;;;;;;;;;;;;;15.91;39.88;101281.00;5018933;28;1048;-41
2024/02/02 05:16:12;;;;;;;;;;;;;;;15.61;40.42;101288.81;5025948;28;1981;-43
2024/02/02 05:18:38;;;;;;;;;;;;;;;16.86;38.12;101298.09;5024830;28;1151;-45
2024/02/02 05:21:03;;;;;;;;;;;;;;;17.27;36.98;101295.66;5019813;28;1142;-43
2024/02/02 05:23:29;;;;;;;;;;;;;;;16.18;39.19;101302.13;5030339;28;1024;-44
2024/02/02 05:25:55;;;;;;;;;;;;;;;16.94;37.81;101308.63;5018285;28;1050;-42
2024/02/02 05:28:20;;;;;;;;;;;;;;;17.03;37.50;101306.22;5018646;28;1195;-45
2024/02/02 05:30:46;;;;;;;;;;;;;;;16.58;38.47;101316.53;5025620;28;1063;-47
2024/02/02 05:33:11;;;;;;;;;;;;;;;18.10;35.69;101321.63;5024730;28;1040;-47
2024/02/02 05:35:37;;;;;;;;;;;;;;;16.82;38.12;101341.75;5018847;28;896;-48
2024/02/02 05:38:02;;;;;;;;;;;;;;;16.28;39.21;101344.50;5017901;28;1922;-43
2024/02/02 05:40:28;;;;;;;;;;;;;;;15.87;39.81;101348.41;5031715;28;1150;-44
2024/02/02 05:42:53;;;;;;;;;;;;;;;17.34;37.02;101361.41;5031947;28;1136;-46
2024/02/02 05:45:19;;;;;;;;;;;;;;;16.83;37.79;101354.38;5018330;28;1092;-42
2024/02/02 05:47:45;;;;;;;;;;;;;;;16.20;39.38;101354.00;5017723;28;1024;-45
2024/02/02 05:50:10;;;;;;;;;;;;;;;17.94;35.76;101365.63;5025277;28;1238;-43
2024/02/02 05:52:36;;;;;;;;;;;;;;;16.51;38.77;101366.16;5025111;28;1000;-42
2024/02/02 05:55:01;;;;;;;;;;;;;;;16.62;38.66;101375.34;5018465;28;1057;-45
2024/02/02 05:57:27;;;;;;;;;;;;;;;17.56;36.62;101377.78;5017815;28;1914;-43
2024/02/02 05:59:52;;;;;;;;;;;;;;;16.46;38.77;101382.56;5018092;28;1100;-45
2024/02/02 06:02:18;;;;;;;;;;;;;;;16.07;39.88;101393.63;5018263;28;1168;-47
2024/02/02 06:04:43;;;;;;;;;;;;;;;17.58;36.75;101403.88;5024255;28;1056;-46
2024/02/02 06:07:09;;;;;;;;;;;;;;;16.55;38.84;101404.88;5025566;28;1114;-46
2024/02/02 06:09:34;;;;;;;;;;;;;;;17.24;37.53;101401.47;5031025;28;1110;-46
2024/02/02 06:12:00;;;;;;;;;;;;;;;17.67;36.38;101414.41;5018414;28;881;-45
2024/02/02 06:14:27;;;;;;;;;;;;;;;16.52;39.00;101419.13;5031166;28;1052;-44
2024/02/02 06:16:53;;;;;;;;;;;;;;;18.17;35.93;101421.28;5016913;28;1918;-46
2024/02/02 06:19:18;;;;;;;;;;;;;;;17.21;37.68;101426.72;5031920;28;1481;-45
2024/02/02 06:21:44;;;;;;;;;;;;;;;16.50;38.95;101433.13;5021584;28;1104;-49
2024/02/02 06:24:09;;;;;;;;;;;;;;;17.09;38.16;101450.78;5021259;28;1070;-49
2024/02/02 06:26:36;;;;;;;;;;;;;;;17.38;37.16;101434.81;5017772;28;1043;-45
2024/02/02 06:29:02;;;;;;;;;;;;;;;16.55;38.84;101435.09;5020424;28;1179;-46
2024/02/02 06:31:28;;;;;;;;;;;;;;;17.61;36.81;101430.03;5016998;28;1020;-46
2024/02/02 06:33:54;;;;;;;;;;;;;;;16.90;38.08;101440.19;5022077;28;1140;-46
2024/02/02 06:36:24;;;;;;;;;;;;;;;16.40;39.15;101430.28;5022407;28;1975;-49
2024/02/02 06:38:50;;;;;;;;;;;;;;;16.95;38.14;101439.41;5035694;28;988;-49
2024/02/02 06:41:16;;;;;;;;;;;;;;;16.68;38.68;101442.94;5025041;28;1118;-45
2024/02/02 06:43:41;;;;;;;;;;;;;;;16.22;39.46;101450.63;5022131;28;1188;-42
2024/02/02 06:46:07;;;;;;;;;;;;;;;17.75;36.64;101449.66;5024801;28;1091;-47
2024/02/02 06:48:32;;;;;;;;;;;;;;;16.66;38.80;101455.25;5016876;28;1159;-47
2024/02/02 06:50:58;;;;;;;;;;;;;;;16.31;39.47;101464.72;5029247;28;1032;-46
2024/02/02 06:53:23;;;;;;;;;;;;;;;18.02;36.13;101463.34;5018003;28;1126;-45
2024/02/02 06:55:49;;;;;;;;;;;;;;;16.80;38.50;101469.41;5029156;28;1090;-42
2024/02/02 06:58:33;;;;;;;;;;;;;;;17.01;38.41;101473.25;5031298;28;1902;-47
2024/02/02 07:00:59;;;;;;;;;;;;;;;17.26;37.51;101467.16;5016294;28;948;-43
2024/02/02 07:03:24;;;;;;;;;;;;;;;16.49;38.93;101477.31;5017228;28;1122;-46
2024/02/02 07:05:50;;;;;;;;;;;;;;;17.81;36.45;101483.53;5017132;28;1057;-42
2024/02/02 07:08:15;;;;;;;;;;;;;;;16.75;38.72;101476.53;5016955;28;1098;-42
2024/02/02 07:10:41;;;;;;;;;;;;;;;16.34;39.52;101476.03;5018309;28;1282;-44
2024/02/02 07:13:06;;;;;;;;;;;;;;;16.85;38.51;101481.28;5017890;28;938;-46
2024/02/02 07:15:35;;;;;;;;;;;;;;;17.22;37.47;101488.00;5015302;28;1064;-47
2024/02/02 07:18:01;;;;;;;;;;;;;;;16.48;39.03;101494.84;5026729;28;1909;-44
2024/02/02 07:20:32;;;;;;;;;;;;;;;16.14;39.63;101484.00;5018534;28;1078;-49
2024/02/02 07:22:58;;;;;;;;;;;;;;;16.94;38.41;101492.66;5016329;28;1055;-45
2024/02/02 07:25:23;;;;;;;;;;;;;;;17.26;37.30;101508.38;5017290;28;1032;-45
2024/02/02 07:27:52;;;;;;;;;;;;;;;16.29;39.54;101506.16;5016952;28;1080;-47
2024/02/02 07:30:37;;;;;;;;;;;;;;;17.55;37.26;101505.34;5016315;28;1205;-45
2024/02/02 07:33:03;;;;;;;;;;;;;;;16.65;38.65;101509.38;5019386;28;1939;-44
2024/02/02 07:35:32;;;;;;;;;;;;;;;16.61;38.93;101508.22;5030022;28;1376;-49
2024/02/02 07:38:02;;;;;;;;;;;;;;;17.27;37.22;101499.88;5026486;28;1913;-45
2024/02/02 07:40:31;;;;;;;;;;;;;;;16.34;39.53;101508.97;5024117;28;1396;-46
2024/02/02 07:42:56;;;;;;;;;;;;;;;16.57;38.95;101510.63;5034699;28;1110;-46
2024/02/02 07:45:22;;;;;;;;;;;;;;;16.95;37.89;101502.59;5030371;28;1442;-46
2024/02/02 07:47:47;;;;;;;;;;;;;;;16.18;39.46;101505.19;5022060;28;1182;-48
2024/02/02 07:50:13;;;;;;;;;;;;;;;17.85;36.30;101512.16;5030379;28;1328;-46
2024/02/02 07:52:38;;;;;;;;;;;;;;;16.76;38.39;101526.81;5022944;28;1181;-45
2024/02/02 07:55:05;;;;;;;;;;;;;;;16.76;38.64;101527.63;5028976;28;1179;-44
2024/02/02 07:57:30;;;;;;;;;;;;;;;17.48;36.88;101518.50;5023809;28;1953;-41
2024/02/02 07:59:56;;;;;;;;;;;;;;;16.50;38.87;101528.41;5033519;28;1180;-46
2024/02/02 08:02:22;;;;;;;;;;;;;;;16.14;39.70;101530.63;5033143;28;1363;-46
2024/02/02 08:04:48;;;;;;;;;;;;;;;17.41;37.25;101524.19;5015969;28;1047;-42
2024/02/02 08:07:13;;;;;;;;;;;;;;;16.90;38.10;101521.75;5029119;28;1451;-45
2024/02/02 08:09:39;;;;;;;;;;;;;;;16.53;39.31;101528.69;5016283;28;1348;-45
2024/02/02 08:12:05;;;;;;;;;;;;;;;17.92;36.40;101526.56;5028312;28;1475;-48
2024/02/02 08:14:30;;;;;;;;;;;;;;;16.66;38.77;101533.00;5024101;28;1155;-50
2024/02/02 08:16:56;;;;;;;;;;;;;;;16.32;39.60;101538.56;5020595;28;1962;-47
2024/02/02 08:19:21;;;;;;;;;;;;;;;17.45;37.15;101528.91;5016163;28;1172;-45
2024/02/02 08:21:47;;;;;;;;;;;;;;;17.09;37.81;101539.53;5030456;28;1071;-48
2024/02/02 08:24:12;;;;;;;;;;;;;;;16.33;39.30;101542.16;5026854;28;1124;-46
2024/02/02 08:26:38;;;;;;;;;;;;;;;17.57;37.14;101544.41;5016155;28;1087;-47
2024/02/02 08:29:03;;;;;;;;;;;;;;;17.09;37.69;101546.97;5016199;28;1051;-44
2024/02/02 08:31:29;;;;;;;;;;;;;;;16.39;39.40;101560.34;5015990;28;1380;-43
2024/02/02 08:33:55;;;;;;;;;;;;;;;17.73;36.80;101559.94;5020966;28;1466;-45
2024/02/02 08:36:20;;;;;;;;;;;;;;;16.75;38.39;101569.91;5025752;28;1902;-48
2024/02/02 08:38:46;;;;;;;;;;;;;;;16.32;39.47;101573.44;5021857;28;1079;-47
2024/02/02 08:41:12;;;;;;;;;;;;;;;17.85;36.61;101569.94;5026886;28;1242;-48
2024/02/02 08:43:39;;;;;;;;;;;;;;;17.09;37.92;101569.78;5015658;28;1167;-48
2024/02/02 08:46:12;;;;;;;;;;;;;;;16.53;39.11;101571.81;5014208;28;1144;-45
2024/02/02 08:48:38;;;;;;;;;;;;;;;18.08;36.23;101563.28;5032423;28;1274;-47
2024/02/02 08:51:10;;;;;;;;;;;;;;;16.81;38.41;101562.56;5019626;28;1048;-49
2024/02/02 08:53:35;;;;;;;;;;;;;;;16.41;39.47;101563.66;5031659;28;1167;-49
2024/02/02 08:56:01;;;;;;;;;;;;;;;17.30;37.62;101560.94;5029735;28;1333;-47
2024/02/02 08:58:34;;;;;;;;;;;;;;;17.03;37.98;101562.56;5031633;28;1906;-50
2024/02/02 09:01:00;;;;;;;;;;;;;;;17.38;37.78;101550.28;5017776;28;1192;-51
2024/02/02 09:03:28;;;;;;;;;;;;;;;18.43;35.48;101556.34;5027841;28;1095;-48
2024/02/02 09:05:57;;;;;;;;;;;;;;;17.03;37.96;101548.84;5025619;28;1138;-45
2024/02/02 09:08:26;;;;;;;;;;;;;;;16.46;39.35;101550.03;5032678;28;1076;-49
2024/02/02 09:11:15;;;;;;;;;;;;;;;17.95;36.32;101539.81;5025370;28;1482;-46
2024/02/02 09:13:41;;;;;;;;;;;;;;;16.63;38.97;101543.66;5013117;28;1783;-45
2024/02/02 09:16:12;;;;;;;;;;;;;;;17.81;36.69;101553.16;5029353;28;1064;-49
2024/02/02 09:18:38;;;;;;;;;;;;;;;17.18;37.68;101555.56;5021410;28;1913;-43
2024/02/02 09:21:04;;;;;;;;;;;;;;;16.74;38.76;101554.50;5018846;28;1111;-47
2024/02/02 09:23:30;;;;;;;;;;;;;;;18.11;36.25;101549.00;5018491;28;1083;-45
2024/02/02 09:25:55;;;;;;;;;;;;;;;16.92;38.33;101552.56;5022259;28;1043;-44
2024/02/02 09:28:24;;;;;;;;;;;;;;;16.49;39.18;101554.19;5024182;28;1270;-47
2024/02/02 09:30:56;;;;;;;;;;;;;;;18.18;36.17;101551.50;5019026;28;1087;-45
2024/02/02 09:33:30;;;;;;;;;;;;;;;16.85;38.51;101552.72;5031891;28;1154;-46
2024/02/02 09:35:56;;;;;;;;;;;;;;;16.49;39.30;101560.50;5018647;28;1111;-47
2024/02/02 09:38:22;;;;;;;;;;;;;;;16.69;39.18;101556.34;5024320;28;1918;-46
2024/02/02 09:40:54;;;;;;;;;;;;;;;17.97;36.56;101545.88;5037111;28;1164;-43
2024/02/02 09:43:34;;;;;;;;;;;;;;;16.65;38.91;101553.31;5018807;28;1016;-44
2024/02/02 09:46:04;;;;;;;;;;;;;;;18.07;36.42;101556.94;5031848;28;999;-47
2024/02/02 09:48:59;;;;;;;;;;;;;;;17.31;37.78;101557.91;5018075;28;1067;-45
2024/02/02 09:51:37;;;;;;;;;;;;;;;16.63;38.93;101557.38;5014458;28;1470;-43
2024/02/02 09:54:21;;;;;;;;;;;;;;;17.83;36.85;101561.97;5048013;28;1053;-45
2024/02/02 09:56:46;;;;;;;;;;;;;;;17.15;37.90;101553.34;5032993;28;1902;-47
2024/02/02 09:59:12;;;;;;;;;;;;;;;16.54;39.38;101554.25;5027767;28;2500;-48
2024/02/02 10:02:04;;;;;;;;;;;;;;;17.76;36.92;101562.19;5027400;28;1364;-48
2024/02/02 10:04:29;;;;;;;;;;;;;;;16.72;38.98;101567.66;5001985;28;1526;-48
2024/02/02 10:07:01;;;;;;;;;;;;;;;18.01;36.45;101563.50;5032477;28;1353;-45
2024/02/02 10:09:45;;;;;;;;;;;;;;;17.43;37.37;101563.25;5028038;28;1131;-45
2024/02/02 10:12:20;;;;;;;;;;;;;;;16.68;39.24;101563.78;5027447;28;1329;-46
2024/02/02 10:15:05;;;;;;;;;;;;;;;16.42;39.62;101554.34;5020868;28;1187;-43
2024/02/02 10:17:36;;;;;;;;;;;;;;;18.03;36.48;101558.56;5024890;28;1910;-46
2024/02/02 10:20:20;;;;;;;;;;;;;;;16.86;38.50;101564.56;5037418;28;1234;-46
2024/02/02 10:22:49;;;;;;;;;;;;;;;17.81;37.09;101566.91;5035924;28;1332;-47
2024/02/02 10:25:24;;;;;;;;;;;;;;;17.55;37.08;101552.09;5031774;28;1387;-48
2024/02/02 10:27:52;;;;;;;;;;;;;;;16.77;38.88;101561.41;5017992;28;1515;-46
2024/02/02 10:30:27;;;;;;;;;;;;;;;17.15;38.42;101556.09;5028431;28;2806;-47
2024/02/02 10:32:59;;;;;;;;;;;;;;;17.75;36.74;101556.94;5034737;28;1177;-47
2024/02/02 10:35:30;;;;;;;;;;;;;;;16.77;38.83;101556.75;5035394;28;1015;-47
2024/02/02 10:37:56;;;;;;;;;;;;;;;17.07;38.60;101555.47;5017387;28;1901;-41
2024/02/02 10:40:30;;;;;;;;;;;;;;;17.84;36.88;101551.78;5018296;28;1075;-47
2024/02/02 10:43:25;;;;;;;;;;;;;;;16.79;38.98;101559.25;5020973;28;1032;-45
2024/02/02 10:45:54;;;;;;;;;;;;;;;16.65;39.28;101550.56;5013050;28;1465;-46
2024/02/02 10:48:38;;;;;;;;;;;;;;;17.95;36.64;101545.31;5017133;28;1123;-45
2024/02/02 10:51:23;;;;;;;;;;;;;;;16.74;38.96;101551.75;5017793;28;1199;-45
2024/02/02 10:54:03;;;;;;;;;;;;;;;18.03;36.48;101555.81;5018832;28;997;-42
2024/02/02 10:56:37;;;;;;;;;;;;;;;17.02;38.25;101552.66;5017276;28;1906;-48
2024/02/02 10:59:26;;;;;;;;;;;;;;;16.50;39.54;101564.09;5028078;28;1187;-49
2024/02/02 11:01:52;;;;;;;;;;;;;;;18.17;36.13;101556.16;5023708;28;1294;-45
2024/02/02 11:04:36;;;;;;;;;;;;;;;16.94;38.37;101558.59;5018887;28;1109;-46
2024/02/02 11:07:05;;;;;;;;;;;;;;;16.56;39.28;101560.31;5016984;28;1157;-45
2024/02/02 11:09:39;;;;;;;;;;;;;;;17.21;38.07;101561.41;5015760;28;1311;-46
2024/02/02 11:12:09;;;;;;;;;;;;;;;17.28;37.66;101555.69;5017476;28;1080;-47
2024/02/02 11:14:38;;;;;;;;;;;;;;;16.62;39.13;101559.31;5021697;28;1177;-45
2024/02/02 11:17:04;;;;;;;;;;;;;;;17.01;38.68;101559.25;5031671;28;1905;-45
2024/02/02 11:19:40;;;;;;;;;;;;;;;17.73;36.82;101576.47;5035201;28;1403;-46
2024/02/02 11:22:18;;;;;;;;;;;;;;;16.66;39.07;101568.69;5017963;28;1454;-46
2024/02/02 11:24:56;;;;;;;;;;;;;;;16.38;39.71;101564.19;5016482;28;1392;-48
2024/02/02 11:27:27;;;;;;;;;;;;;;;18.05;36.43;101567.41;5024103;28;1392;-47
2024/02/02 11:29:56;;;;;;;;;;;;;;;16.82;38.97;101568.91;5021788;28;1246;-45
2024/02/02 11:32:39;;;;;;;;;;;;;;;16.28;40.05;101566.78;5032768;28;1170;-44
2024/02/02 11:35:17;;;;;;;;;;;;;;;18.13;36.20;101561.41;5034575;28;1174;-45
2024/02/02 11:37:46;;;;;;;;;;;;;;;16.79;38.79;101569.38;5024211;28;1910;-46
2024/02/02 11:40:12;;;;;;;;;;;;;;;16.43;39.68;101573.31;5035671;28;1202;-44
2024/02/02 11:42:38;;;;;;;;;;;;;;;17.78;37.17;101571.00;5024104;28;1017;-46
2024/02/02 11:45:05;;;;;;;;;;;;;;;16.90;38.75;101568.44;5018779;28;1375;-47
2024/02/02 11:47:32;;;;;;;;;;;;;;;17.10;38.48;101560.44;5025727;28;1064;-46
2024/02/02 11:50:05;;;;;;;;;;;;;;;17.75;36.96;101566.03;5020094;28;1376;-46
2024/02/02 11:52:32;;;;;;;;;;;;;;;16.64;38.96;101557.13;5025918;28;1387;-47
2024/02/02 11:55:01;;;;;;;;;;;;;;;16.38;39.91;101565.03;5019136;28;1427;-47
2024/02/02 11:57:27;;;;;;;;;;;;;;;17.74;37.25;101564.38;5028795;28;1906;-45
2024/02/02 11:59:53;;;;;;;;;;;;;;;16.70;38.91;101564.31;5029232;28;1351;-46
2024/02/02 12:02:24;;;;;;;;;;;;;;;16.36;39.72;101571.84;5025046;28;1314;-47
2024/02/02 12:05:08;;;;;;;;;;;;;;;18.18;36.37;101563.34;5018333;28;1478;-46
2024/02/02 12:07:40;;;;;;;;;;;;;;;16.97;38.44;101560.88;5018571;28;1162;-50
2024/02/02 12:10:08;;;;;;;;;;;;;;;16.51;39.54;101563.81;5015861;28;1127;-50
2024/02/02 12:12:33;;;;;;;;;;;;;;;18.28;36.13;101560.66;5020020;28;1082;-49
2024/02/02 12:14:59;;;;;;;;;;;;;;;17.00;38.30;101562.25;5023332;28;1177;-48
2024/02/02 12:17:25;;;;;;;;;;;;;;;17.16;38.33;101553.09;5033528;28;1901;-49
2024/02/02 12:19:51;;;;;;;;;;;;;;;18.16;36.36;101554.53;5023070;28;1398;-47
2024/02/02 12:22:16;;;;;;;;;;;;;;;16.98;38.67;101556.19;5018562;28;1404;-46
2024/02/02 12:24:42;;;;;;;;;;;;;;;16.87;38.82;101563.44;5032773;28;1036;-47
2024/02/02 12:27:08;;;;;;;;;;;;;;;17.58;37.17;101565.31;5038787;28;1395;-47
2024/02/02 12:29:36;;;;;;;;;;;;;;;16.65;39.21;101566.19;5037183;28;1423;-42
2024/02/02 12:32:03;;;;;;;;;;;;;;;16.53;39.67;101567.13;5019975;28;1040;-48
2024/02/02 12:34:29;;;;;;;;;;;;;;;18.20;36.00;101554.81;5019834;28;1051;-44
2024/02/02 12:36:57;;;;;;;;;;;;;;;16.91;38.70;101549.00;5035281;28;1902;-44
2024/02/02 12:39:23;;;;;;;;;;;;;;;16.62;39.23;101558.47;5028377;28;967;-43
2024/02/02 12:41:50;;;;;;;;;;;;;;;18.08;36.46;101547.59;5019088;28;1068;-46
2024/02/02 12:44:15;;;;;;;;;;;;;;;16.88;38.72;101557.72;5031141;28;1072;-47
2024/02/02 12:46:44;;;;;;;;;;;;;;;17.96;36.90;101549.69;5021130;28;1051;-43
2024/02/02 12:49:10;;;;;;;;;;;;;;;17.76;37.06;101562.19;5026443;28;1446;-46